PKWA TAF

85.1 °F / 29.5 °C
ENE at 14 MPH
73%
75.7°F / 24.3 °C
29.79" (1008 mb)
10 mile(s)
partly cloudy
2019.12.09 0540 UTC

PKWA TAF

2019/12/09 06:36
TAF PKWA 090531Z 0906/1006 07014KT P6SM FEW024 SCT040